Time;durP1;ratioP1;P1;durP2;ratioP2;P2;SDS_P1;SDS_P2;PMS_P1;PMS_P2;Temp;Humidity;BMP_temperature;BMP_pressure;BME280_temperature;BME280_humidity;BME280_pressure;Samples;Min_cycle;Max_cycle;Signal;HPM_P1;HPM_P2
2023/08/05 00:01:28;;;;;;;7.50;6.38;;;;;;;;;;5089080;28;20044;-68
2023/08/05 00:03:53;;;;;;;6.53;5.80;;;;;;;;;;5094386;28;20016;-68
2023/08/05 00:06:18;;;;;;;9.13;5.95;;;;;;;;;;5092978;28;21167;-68
2023/08/05 00:08:43;;;;;;;11.23;7.13;;;;;;;;;;5094157;28;20012;-67
2023/08/05 00:11:09;;;;;;;7.20;6.07;;;;;;;;;;5092920;28;20446;-68
2023/08/05 00:13:34;;;;;;;13.63;7.37;;;;;;;;;;5094302;28;20020;-67
2023/08/05 00:15:59;;;;;;;12.55;6.93;;;;;;;;;;5091577;28;20503;-67
2023/08/05 00:18:25;;;;;;;7.55;6.43;;;;;;;;;;5093696;28;20081;-67
2023/08/05 00:20:50;;;;;;;9.98;5.90;;;;;;;;;;5092695;28;20091;-67
2023/08/05 00:23:15;;;;;;;11.82;5.90;;;;;;;;;;5093802;28;20467;-67
2023/08/05 00:25:40;;;;;;;8.60;6.57;;;;;;;;;;5092705;28;20012;-67
2023/08/05 00:28:05;;;;;;;9.20;5.78;;;;;;;;;;5093746;28;20052;-67
2023/08/05 00:30:30;;;;;;;14.40;7.27;;;;;;;;;;5093586;28;20489;-67
2023/08/05 00:32:55;;;;;;;8.30;6.57;;;;;;;;;;5092088;28;20071;-67
2023/08/05 00:35:22;;;;;;;9.02;7.43;;;;;;;;;;5093667;28;20084;-67
2023/08/05 00:37:47;;;;;;;12.93;8.20;;;;;;;;;;5092372;28;20507;-68
2023/08/05 00:40:13;;;;;;;9.93;7.82;;;;;;;;;;5092862;28;20138;-66
2023/08/05 00:42:38;;;;;;;6.30;5.23;;;;;;;;;;5092483;28;20601;-66
2023/08/05 00:45:03;;;;;;;7.63;5.80;;;;;;;;;;5094093;28;20018;-66
2023/08/05 00:47:29;;;;;;;8.52;4.95;;;;;;;;;;5091416;28;20412;-66
2023/08/05 00:49:56;;;;;;;7.88;5.40;;;;;;;;;;5093491;28;20024;-67
2023/08/05 00:52:22;;;;;;;11.02;5.97;;;;;;;;;;5091576;28;20504;-67
2023/08/05 00:54:47;;;;;;;7.90;6.35;;;;;;;;;;5092040;28;20016;-67
2023/08/05 00:57:13;;;;;;;9.65;5.38;;;;;;;;;;5091533;28;20071;-66
2023/08/05 00:59:38;;;;;;;8.23;5.53;;;;;;;;;;5093413;28;20050;-68
2023/08/05 01:02:03;;;;;;;8.77;5.90;;;;;;;;;;5091482;28;20387;-67
2023/08/05 01:04:29;;;;;;;10.45;6.93;;;;;;;;;;5093027;28;20845;-67
2023/08/05 01:06:55;;;;;;;8.43;5.07;;;;;;;;;;5091674;28;20032;-66
2023/08/05 01:09:20;;;;;;;6.95;5.22;;;;;;;;;;5092519;28;20043;-67
2023/08/05 01:11:45;;;;;;;10.93;5.10;;;;;;;;;;5089716;28;20075;-67
2023/08/05 01:14:11;;;;;;;9.32;5.78;;;;;;;;;;5091206;28;20016;-67
2023/08/05 01:16:36;;;;;;;8.67;6.97;;;;;;;;;;5091246;28;20123;-68
2023/08/05 01:19:03;;;;;;;7.93;5.47;;;;;;;;;;5092681;28;20052;-68
2023/08/05 01:21:42;;;;;;;5.22;4.80;;;;;;;;;;5091374;28;20089;-68
2023/08/05 01:24:25;;;;;;;10.50;6.57;;;;;;;;;;5092361;28;20043;-68
2023/08/05 01:26:50;;;;;;;7.13;5.60;;;;;;;;;;5091481;28;20107;-68
2023/08/05 01:29:16;;;;;;;20.52;7.78;;;;;;;;;;5092670;28;20059;-68
2023/08/05 01:31:43;;;;;;;13.97;6.83;;;;;;;;;;5091116;28;20036;-69
2023/08/05 01:34:08;;;;;;;9.82;6.10;;;;;;;;;;5092005;28;20468;-69
2023/08/05 01:36:33;;;;;;;7.90;6.68;;;;;;;;;;5091335;28;20135;-70
2023/08/05 01:38:59;;;;;;;8.83;6.37;;;;;;;;;;5092245;28;20088;-69
2023/08/05 01:41:24;;;;;;;10.50;9.23;;;;;;;;;;5090554;28;21065;-69
2023/08/05 01:43:49;;;;;;;8.23;7.03;;;;;;;;;;5092610;28;20016;-70
2023/08/05 01:46:14;;;;;;;15.83;8.43;;;;;;;;;;5089161;28;20055;-70
2023/08/05 01:48:39;;;;;;;10.17;8.73;;;;;;;;;;5092490;28;20012;-69
2023/08/05 01:51:05;;;;;;;12.47;9.17;;;;;;;;;;5090535;28;20453;-68
2023/08/05 01:53:30;;;;;;;10.87;7.77;;;;;;;;;;5091709;28;20020;-68
2023/08/05 01:55:55;;;;;;;8.37;7.47;;;;;;;;;;5090945;28;20027;-68
2023/08/05 01:58:20;;;;;;;11.43;7.20;;;;;;;;;;5092203;28;20584;-66
2023/08/05 02:00:49;;;;;;;9.52;8.57;;;;;;;;;;5090290;28;20044;-67
2023/08/05 02:03:14;;;;;;;8.32;7.20;;;;;;;;;;5091758;28;20058;-67
2023/08/05 02:05:40;;;;;;;7.00;5.00;;;;;;;;;;5092310;28;20052;-67
2023/08/05 02:08:05;;;;;;;14.45;4.20;;;;;;;;;;5090213;28;20032;-67
2023/08/05 02:10:30;;;;;;;6.00;4.80;;;;;;;;;;5091753;28;20401;-67
2023/08/05 02:12:55;;;;;;;15.82;4.90;;;;;;;;;;5090287;28;20035;-67
2023/08/05 02:15:20;;;;;;;10.30;5.50;;;;;;;;;;5091342;28;20067;-67
2023/08/05 02:17:46;;;;;;;4.67;4.20;;;;;;;;;;5089353;28;20032;-67
2023/08/05 02:20:11;;;;;;;9.70;4.07;;;;;;;;;;5091027;28;20131;-68
2023/08/05 02:22:36;;;;;;;25.63;5.32;;;;;;;;;;5089899;28;20039;-69
2023/08/05 02:25:01;;;;;;;15.55;4.85;;;;;;;;;;5086013;28;20467;-69
2023/08/05 02:27:26;;;;;;;22.60;5.85;;;;;;;;;;5071467;28;20097;-68
2023/08/05 02:29:51;;;;;;;14.32;4.57;;;;;;;;;;5090776;28;20023;-67
2023/08/05 02:32:17;;;;;;;4.17;3.47;;;;;;;;;;5089738;28;20493;-68
2023/08/05 02:34:42;;;;;;;5.60;5.03;;;;;;;;;;5091669;28;20016;-68
2023/08/05 02:37:07;;;;;;;6.47;5.88;;;;;;;;;;5088972;28;20495;-68
2023/08/05 02:39:32;;;;;;;6.37;5.67;;;;;;;;;;5091486;28;20028;-68
2023/08/05 02:41:57;;;;;;;6.75;5.15;;;;;;;;;;5090107;28;20036;-68
2023/08/05 02:44:22;;;;;;;30.23;4.45;;;;;;;;;;5090852;28;20089;-68
2023/08/05 02:46:47;;;;;;;6.65;4.05;;;;;;;;;;5089772;28;20046;-68
2023/08/05 02:49:13;;;;;;;6.70;4.55;;;;;;;;;;5091113;28;20019;-70
2023/08/05 02:51:38;;;;;;;6.80;5.50;;;;;;;;;;5089496;28;20040;-70
2023/08/05 02:54:04;;;;;;;7.50;5.95;;;;;;;;;;5091248;28;20493;-70
2023/08/05 02:56:29;;;;;;;12.80;3.45;;;;;;;;;;5089952;28;20036;-69
2023/08/05 02:58:54;;;;;;;5.88;5.20;;;;;;;;;;5091025;28;20024;-67
2023/08/05 03:01:19;;;;;;;11.27;5.35;;;;;;;;;;5089255;28;20036;-67
2023/08/05 03:03:44;;;;;;;5.87;4.77;;;;;;;;;;5091316;28;20061;-66
2023/08/05 03:06:09;;;;;;;11.38;5.07;;;;;;;;;;5089275;28;20438;-66
2023/08/05 03:08:35;;;;;;;9.23;4.83;;;;;;;;;;5091162;28;20097;-66
2023/08/05 03:11:00;;;;;;;9.90;6.05;;;;;;;;;;5089496;28;21505;-67
2023/08/05 03:13:26;;;;;;;7.30;5.13;;;;;;;;;;5090128;28;20103;-66
2023/08/05 03:15:51;;;;;;;6.90;6.30;;;;;;;;;;5089837;28;20118;-67
2023/08/05 03:18:16;;;;;;;6.53;5.82;;;;;;;;;;5090508;28;20964;-67
2023/08/05 03:20:42;;;;;;;6.20;5.60;;;;;;;;;;5089154;28;20031;-67
2023/08/05 03:23:08;;;;;;;6.22;5.72;;;;;;;;;;5090648;28;20410;-66
2023/08/05 03:25:33;;;;;;;7.90;6.13;;;;;;;;;;5090909;28;20101;-68
2023/08/05 03:27:58;;;;;;;9.98;5.07;;;;;;;;;;5088861;28;20044;-68
2023/08/05 03:30:23;;;;;;;5.38;4.97;;;;;;;;;;5090084;28;20356;-68
2023/08/05 03:32:48;;;;;;;15.45;5.55;;;;;;;;;;5089337;28;20032;-67
2023/08/05 03:35:14;;;;;;;5.78;5.10;;;;;;;;;;5091037;28;20035;-68
2023/08/05 03:37:39;;;;;;;5.43;4.93;;;;;;;;;;5092995;28;20040;-68
2023/08/05 03:40:04;;;;;;;9.03;6.13;;;;;;;;;;5094756;28;20035;-68
2023/08/05 03:42:30;;;;;;;11.32;5.50;;;;;;;;;;5092963;28;20450;-68
2023/08/05 03:44:55;;;;;;;5.40;4.80;;;;;;;;;;5094508;28;20375;-67
2023/08/05 03:47:20;;;;;;;7.47;5.80;;;;;;;;;;5093237;28;20032;-74
2023/08/05 03:49:46;;;;;;;5.80;5.25;;;;;;;;;;5094693;28;20016;-68
2023/08/05 03:52:11;;;;;;;8.65;5.43;;;;;;;;;;5092250;28;20032;-67
2023/08/05 03:54:37;;;;;;;5.88;5.28;;;;;;;;;;5094725;28;20028;-66
2023/08/05 03:57:07;;;;;;;7.33;6.03;;;;;;;;;;5093339;28;20036;-66
2023/08/05 03:59:33;;;;;;;9.90;5.85;;;;;;;;;;5094249;28;20016;-66
2023/08/05 04:01:58;;;;;;;6.50;5.78;;;;;;;;;;5093123;28;20109;-67
2023/08/05 04:04:23;;;;;;;8.43;5.75;;;;;;;;;;5094433;28;20016;-68
2023/08/05 04:06:49;;;;;;;7.50;6.67;;;;;;;;;;5092418;28;20081;-70
2023/08/05 04:09:14;;;;;;;7.80;6.75;;;;;;;;;;5094308;28;20534;-67
2023/08/05 04:11:40;;;;;;;8.20;7.50;;;;;;;;;;5092567;28;20040;-67
2023/08/05 04:14:06;;;;;;;8.23;7.15;;;;;;;;;;5093690;28;20062;-66
2023/08/05 04:16:31;;;;;;;6.85;6.25;;;;;;;;;;5092565;28;20039;-67
2023/08/05 04:18:57;;;;;;;8.33;6.10;;;;;;;;;;5094077;28;20055;-69
2023/08/05 04:21:27;;;;;;;8.35;6.22;;;;;;;;;;5092461;28;20454;-70
2023/08/05 04:23:54;;;;;;;10.82;6.47;;;;;;;;;;5093944;28;20470;-70
2023/08/05 04:26:19;;;;;;;10.65;8.02;;;;;;;;;;5092423;28;20109;-67
2023/08/05 04:28:44;;;;;;;10.77;9.07;;;;;;;;;;5093894;28;20595;-70
2023/08/05 04:31:10;;;;;;;8.60;7.53;;;;;;;;;;5091927;28;20854;-70
2023/08/05 04:33:35;;;;;;;13.23;9.38;;;;;;;;;;5093476;28;20425;-69
2023/08/05 04:36:00;;;;;;;13.10;8.27;;;;;;;;;;5091792;28;20027;-69
2023/08/05 04:38:25;;;;;;;10.00;7.35;;;;;;;;;;5093573;28;20125;-69
2023/08/05 04:40:51;;;;;;;11.23;8.43;;;;;;;;;;5072894;28;20411;-68
2023/08/05 04:43:16;;;;;;;8.93;7.93;;;;;;;;;;5091256;28;20020;-70
2023/08/05 04:45:41;;;;;;;9.68;8.70;;;;;;;;;;5082204;28;20020;-66
2023/08/05 04:48:07;;;;;;;15.93;8.00;;;;;;;;;;5092461;28;20016;-69
2023/08/05 04:50:32;;;;;;;11.00;8.50;;;;;;;;;;5084937;28;20024;-70
2023/08/05 04:52:57;;;;;;;13.67;7.17;;;;;;;;;;5082940;28;20507;-70
2023/08/05 04:55:22;;;;;;;15.97;7.03;;;;;;;;;;5077869;28;20442;-71
2023/08/05 04:57:52;;;;;;;11.73;8.23;;;;;;;;;;5084634;28;20466;-69
2023/08/05 05:00:17;;;;;;;8.80;7.60;;;;;;;;;;5092824;28;20050;-70
2023/08/05 05:02:43;;;;;;;10.35;8.45;;;;;;;;;;5081733;28;20613;-68
2023/08/05 05:05:08;;;;;;;12.18;8.40;;;;;;;;;;5083721;28;20384;-68
2023/08/05 05:07:33;;;;;;;10.75;8.23;;;;;;;;;;5083711;28;20036;-68
2023/08/05 05:09:59;;;;;;;11.03;7.97;;;;;;;;;;5089751;28;20051;-69
2023/08/05 05:12:24;;;;;;;9.52;8.57;;;;;;;;;;5077397;28;20457;-69
2023/08/05 05:14:49;;;;;;;12.63;7.47;;;;;;;;;;5082295;28;20016;-70
2023/08/05 05:17:15;;;;;;;15.13;8.43;;;;;;;;;;5084920;28;20036;-69
2023/08/05 05:19:41;;;;;;;12.27;8.93;;;;;;;;;;5075557;28;20471;-70
2023/08/05 05:22:06;;;;;;;10.48;9.15;;;;;;;;;;5090988;28;20040;-69
2023/08/05 05:24:31;;;;;;;10.97;9.40;;;;;;;;;;5084525;28;20028;-69
2023/08/05 05:26:57;;;;;;;17.42;10.10;;;;;;;;;;5079489;28;20442;-70
2023/08/05 05:29:22;;;;;;;8.77;7.68;;;;;;;;;;5086654;28;20027;-69
2023/08/05 05:31:47;;;;;;;10.48;9.07;;;;;;;;;;5056203;28;20655;-70
2023/08/05 05:34:13;;;;;;;17.55;9.70;;;;;;;;;;5090140;28;20031;-70
2023/08/05 05:36:38;;;;;;;10.47;9.07;;;;;;;;;;5081323;28;20044;-69
2023/08/05 05:39:03;;;;;;;9.35;7.03;;;;;;;;;;5079928;28;20451;-69
2023/08/05 05:41:28;;;;;;;11.00;7.40;;;;;;;;;;5085918;28;20620;-70
2023/08/05 05:43:55;;;;;;;14.40;8.53;;;;;;;;;;5086075;28;20016;-70
2023/08/05 05:46:21;;;;;;;11.32;7.25;;;;;;;;;;5084316;28;20459;-70
2023/08/05 05:48:46;;;;;;;10.57;8.57;;;;;;;;;;5081606;28;20078;-70
2023/08/05 05:51:11;;;;;;;10.90;6.70;;;;;;;;;;5077300;28;20447;-70
2023/08/05 05:53:36;;;;;;;20.38;8.98;;;;;;;;;;5088446;28;20008;-71
2023/08/05 05:56:02;;;;;;;10.83;7.40;;;;;;;;;;5073503;28;20040;-70
2023/08/05 05:58:27;;;;;;;13.63;8.07;;;;;;;;;;5083513;28;20020;-70
2023/08/05 06:00:53;;;;;;;10.20;7.80;;;;;;;;;;5079851;28;20020;-71
2023/08/05 06:03:18;;;;;;;9.50;6.05;;;;;;;;;;5077043;28;20043;-70
2023/08/05 06:05:44;;;;;;;8.63;7.55;;;;;;;;;;5086013;28;20020;-70
2023/08/05 06:08:09;;;;;;;16.60;6.63;;;;;;;;;;5074961;28;20035;-70
2023/08/05 06:10:38;;;;;;;7.38;6.05;;;;;;;;;;5083384;28;20364;-70
2023/08/05 06:13:03;;;;;;;7.38;4.75;;;;;;;;;;5080340;28;20047;-70
2023/08/05 06:15:30;;;;;;;7.70;6.25;;;;;;;;;;5074049;28;20020;-70
2023/08/05 06:17:55;;;;;;;15.05;7.20;;;;;;;;;;5088033;28;20072;-70
2023/08/05 06:20:20;;;;;;;9.33;4.57;;;;;;;;;;5090685;28;20593;-70
2023/08/05 06:22:45;;;;;;;6.57;5.83;;;;;;;;;;5089913;28;20032;-70
2023/08/05 06:25:10;;;;;;;6.97;6.17;;;;;;;;;;5091264;28;20422;-69
2023/08/05 06:27:36;;;;;;;7.57;5.73;;;;;;;;;;5089728;28;20058;-70
2023/08/05 06:30:01;;;;;;;6.80;5.25;;;;;;;;;;5090830;28;20457;-70
2023/08/05 06:32:26;;;;;;;5.70;4.80;;;;;;;;;;5089634;28;20040;-71
2023/08/05 06:34:51;;;;;;;5.37;4.87;;;;;;;;;;5091168;28;20444;-69
2023/08/05 06:37:17;;;;;;;41.47;7.38;;;;;;;;;;5089803;28;20032;-67
2023/08/05 06:39:42;;;;;;;9.87;5.73;;;;;;;;;;5090522;28;20020;-67
2023/08/05 06:42:07;;;;;;;6.17;5.63;;;;;;;;;;5088291;28;20035;-66
2023/08/05 06:44:32;;;;;;;5.23;4.73;;;;;;;;;;5090701;28;20506;-67
2023/08/05 06:46:57;;;;;;;7.67;5.90;;;;;;;;;;5089473;28;20055;-66
2023/08/05 06:49:22;;;;;;;16.45;7.05;;;;;;;;;;5089835;28;20414;-67
2023/08/05 06:51:50;;;;;;;7.47;4.80;;;;;;;;;;5089736;28;20039;-66
2023/08/05 06:54:15;;;;;;;7.00;5.13;;;;;;;;;;5090944;28;20119;-67
2023/08/05 06:56:40;;;;;;;6.90;4.60;;;;;;;;;;5080844;28;21330;-66
2023/08/05 06:59:06;;;;;;;9.60;6.07;;;;;;;;;;5071694;28;20020;-66
2023/08/05 07:01:31;;;;;;;14.20;5.68;;;;;;;;;;5074914;28;20031;-67
2023/08/05 07:03:56;;;;;;;9.77;5.93;;;;;;;;;;5078920;28;20050;-67
2023/08/05 07:06:22;;;;;;;10.15;4.97;;;;;;;;;;5080703;28;20036;-67
2023/08/05 07:08:47;;;;;;;11.83;6.50;;;;;;;;;;5074043;28;20092;-67
2023/08/05 07:11:12;;;;;;;10.03;4.87;;;;;;;;;;5083244;28;20504;-68
2023/08/05 07:13:37;;;;;;;6.68;4.55;;;;;;;;;;5077819;28;20434;-67
2023/08/05 07:16:03;;;;;;;8.55;4.75;;;;;;;;;;5089215;28;20039;-67
2023/08/05 07:18:29;;;;;;;11.95;5.28;;;;;;;;;;5074443;28;20086;-66
2023/08/05 07:20:55;;;;;;;7.32;4.60;;;;;;;;;;5085092;28;20044;-66
2023/08/05 07:23:21;;;;;;;14.07;7.68;;;;;;;;;;5073921;28;20023;-66
2023/08/05 07:25:46;;;;;;;12.30;6.40;;;;;;;;;;5075635;28;20031;-66
2023/08/05 07:28:11;;;;;;;7.32;5.85;;;;;;;;;;5078639;28;20459;-67
2023/08/05 07:30:36;;;;;;;7.65;4.80;;;;;;;;;;5085466;28;20038;-67
2023/08/05 07:33:07;;;;;;;6.43;5.83;;;;;;;;;;5071361;28;20039;-67
2023/08/05 07:35:33;;;;;;;13.23;6.72;;;;;;;;;;5082936;28;20027;-67
2023/08/05 07:37:58;;;;;;;8.68;6.13;;;;;;;;;;5077476;28;20605;-67
2023/08/05 07:40:23;;;;;;;10.87;5.27;;;;;;;;;;5076260;28;20103;-66
2023/08/05 07:42:49;;;;;;;8.30;4.93;;;;;;;;;;5085220;28;20059;-67
2023/08/05 07:45:18;;;;;;;7.60;4.63;;;;;;;;;;5073785;28;20016;-68
2023/08/05 07:47:43;;;;;;;11.77;5.57;;;;;;;;;;5076206;28;20259;-67
2023/08/05 07:50:14;;;;;;;8.35;5.40;;;;;;;;;;5084352;28;20039;-68
2023/08/05 07:52:39;;;;;;;16.85;5.10;;;;;;;;;;5088150;28;20040;-67
2023/08/05 07:55:04;;;;;;;8.52;5.45;;;;;;;;;;5087196;28;20065;-66
2023/08/05 07:57:30;;;;;;;7.13;5.57;;;;;;;;;;5084040;28;20124;-70
2023/08/05 07:59:56;;;;;;;7.53;5.78;;;;;;;;;;5090258;28;20379;-71
2023/08/05 08:02:21;;;;;;;11.73;5.18;;;;;;;;;;5087382;28;20514;-70
2023/08/05 08:04:48;;;;;;;16.17;6.63;;;;;;;;;;5089696;28;20020;-70
2023/08/05 08:07:14;;;;;;;23.10;8.85;;;;;;;;;;5086930;28;20454;-70
2023/08/05 08:09:39;;;;;;;10.23;6.73;;;;;;;;;;5089662;28;20018;-71
2023/08/05 08:12:04;;;;;;;10.27;7.88;;;;;;;;;;5088430;28;20438;-70
2023/08/05 08:14:29;;;;;;;16.27;9.27;;;;;;;;;;5089670;28;20046;-70
2023/08/05 08:16:55;;;;;;;11.83;8.53;;;;;;;;;;5088011;28;20051;-70
2023/08/05 08:19:21;;;;;;;17.90;13.90;;;;;;;;;;5089086;28;20040;-70
2023/08/05 08:21:46;;;;;;;20.05;14.65;;;;;;;;;;5088573;28;20440;-72
2023/08/05 08:24:11;;;;;;;23.00;16.45;;;;;;;;;;5093292;28;20008;-71
2023/08/05 08:26:36;;;;;;;18.57;15.33;;;;;;;;;;5092364;28;20510;-70
2023/08/05 08:29:02;;;;;;;21.30;17.98;;;;;;;;;;5094116;28;20016;-70
2023/08/05 08:31:30;;;;;;;20.27;18.10;;;;;;;;;;5092191;28;20028;-70
2023/08/05 08:33:55;;;;;;;29.52;20.05;;;;;;;;;;5093930;28;20027;-71
2023/08/05 08:36:20;;;;;;;23.98;18.13;;;;;;;;;;5092323;28;20111;-71
2023/08/05 08:38:46;;;;;;;28.67;22.53;;;;;;;;;;5094013;28;20024;-71
2023/08/05 08:41:11;;;;;;;24.27;21.77;;;;;;;;;;5091519;28;20480;-70
2023/08/05 08:43:36;;;;;;;27.33;22.30;;;;;;;;;;5093882;28;20505;-70
2023/08/05 08:46:02;;;;;;;27.20;21.58;;;;;;;;;;5092050;28;20020;-70
2023/08/05 08:48:28;;;;;;;25.10;19.70;;;;;;;;;;5092898;28;20431;-71
2023/08/05 08:50:53;;;;;;;24.45;19.30;;;;;;;;;;5090730;28;20020;-71
2023/08/05 08:53:19;;;;;;;23.30;21.00;;;;;;;;;;5072398;28;20021;-71
2023/08/05 08:55:44;;;;;;;22.50;20.30;;;;;;;;;;5086903;28;20016;-71
2023/08/05 08:58:10;;;;;;;19.20;17.20;;;;;;;;;;5082698;28;20459;-70
2023/08/05 09:00:37;;;;;;;20.98;16.98;;;;;;;;;;5092757;28;20454;-70
2023/08/05 09:03:03;;;;;;;17.90;15.90;;;;;;;;;;5090375;28;20047;-71
2023/08/05 09:05:30;;;;;;;41.60;16.05;;;;;;;;;;5087378;28;20023;-69
2023/08/05 09:07:56;;;;;;;19.05;15.00;;;;;;;;;;5090721;28;20032;-69
2023/08/05 09:10:23;;;;;;;20.95;15.32;;;;;;;;;;5081768;28;20023;-70
2023/08/05 09:12:48;;;;;;;16.05;13.05;;;;;;;;;;5091611;28;20044;-69
2023/08/05 09:15:14;;;;;;;16.50;11.30;;;;;;;;;;5080563;28;20086;-70
2023/08/05 09:17:39;;;;;;;13.38;11.98;;;;;;;;;;5085681;28;20483;-69
2023/08/05 09:20:16;;;;;;;14.53;10.30;;;;;;;;;;5075899;28;20059;-69
2023/08/05 09:22:51;;;;;;;13.98;12.55;;;;;;;;;;5084267;28;20443;-69
2023/08/05 09:25:16;;;;;;;18.10;11.23;;;;;;;;;;5086587;28;20016;-68
2023/08/05 09:27:46;;;;;;;17.87;13.60;;;;;;;;;;5075658;28;20043;-69
2023/08/05 09:30:16;;;;;;;11.10;10.15;;;;;;;;;;5089188;28;20518;-68
2023/08/05 09:32:42;;;;;;;14.73;12.25;;;;;;;;;;5077218;28;20043;-68
2023/08/05 09:35:10;;;;;;;13.70;11.15;;;;;;;;;;5081186;28;20040;-70
2023/08/05 09:37:39;;;;;;;10.60;8.20;;;;;;;;;;5084961;28;20044;-71
2023/08/05 09:40:14;;;;;;;10.48;8.88;;;;;;;;;;5084869;28;20447;-68
2023/08/05 09:42:40;;;;;;;8.60;7.03;;;;;;;;;;5073367;28;20159;-68
2023/08/05 09:45:08;;;;;;;8.93;7.30;;;;;;;;;;5082404;28;20095;-68
2023/08/05 09:47:34;;;;;;;8.45;6.50;;;;;;;;;;5090093;28;20043;-68
2023/08/05 09:50:01;;;;;;;5.90;5.38;;;;;;;;;;5091031;28;20387;-68
2023/08/05 09:52:28;;;;;;;7.35;6.45;;;;;;;;;;5077595;28;20044;-68
2023/08/05 09:54:58;;;;;;;10.17;5.33;;;;;;;;;;5084337;28;20379;-68
2023/08/05 09:57:24;;;;;;;4.80;3.33;;;;;;;;;;5077324;28;20446;-69
2023/08/05 09:59:53;;;;;;;5.82;4.55;;;;;;;;;;5088671;28;20030;-69
2023/08/05 10:02:22;;;;;;;4.50;3.55;;;;;;;;;;5073415;28;20451;-68
2023/08/05 10:04:51;;;;;;;4.18;2.65;;;;;;;;;;5082758;28;20017;-69
2023/08/05 10:07:17;;;;;;;3.70;3.40;;;;;;;;;;5081074;28;20056;-68
2023/08/05 10:09:42;;;;;;;3.13;2.10;;;;;;;;;;5077246;28;20155;-69
2023/08/05 10:12:08;;;;;;;8.53;2.90;;;;;;;;;;5075486;28;20648;-69
2023/08/05 10:14:34;;;;;;;9.20;3.05;;;;;;;;;;5085667;28;20840;-69
2023/08/05 10:17:00;;;;;;;4.40;2.40;;;;;;;;;;5079090;28;20036;-68
2023/08/05 10:19:30;;;;;;;5.25;2.75;;;;;;;;;;5077983;28;20040;-69
2023/08/05 10:22:11;;;;;;;4.93;2.58;;;;;;;;;;5086048;28;20028;-68
2023/08/05 10:24:49;;;;;;;8.20;2.90;;;;;;;;;;5077625;28;20012;-68
2023/08/05 10:27:14;;;;;;;7.55;3.17;;;;;;;;;;5082217;28;20043;-69
2023/08/05 10:29:51;;;;;;;8.90;3.30;;;;;;;;;;5091552;28;20093;-68
2023/08/05 10:32:16;;;;;;;13.07;3.85;;;;;;;;;;5072927;28;20492;-67
2023/08/05 10:34:42;;;;;;;4.93;3.23;;;;;;;;;;5082790;28;20038;-67
2023/08/05 10:37:07;;;;;;;4.78;3.10;;;;;;;;;;5078591;28;20511;-67
2023/08/05 10:39:39;;;;;;;4.97;2.25;;;;;;;;;;5076300;28;20108;-68
2023/08/05 10:42:17;;;;;;;5.13;2.75;;;;;;;;;;5086130;28;20487;-69
2023/08/05 10:44:42;;;;;;;;;;;;;;;;;;5078168;28;20051;-68
2023/08/05 10:47:08;;;;;;;6.65;2.65;;;;;;;;;;5088777;28;19920;-68
2023/08/05 10:49:35;;;;;;;4.63;2.45;;;;;;;;;;5084013;28;20479;-68
2023/08/05 10:52:00;;;;;;;4.30;2.43;;;;;;;;;;5085597;28;20035;-68
2023/08/05 10:54:30;;;;;;;9.05;2.38;;;;;;;;;;5084279;28;20446;-68
2023/08/05 10:56:56;;;;;;;2.47;2.20;;;;;;;;;;5080421;28;20037;-68
2023/08/05 10:59:21;;;;;;;3.87;2.20;;;;;;;;;;5083064;28;20020;-69
2023/08/05 11:01:53;;;;;;;3.22;1.83;;;;;;;;;;5073116;28;20451;-69
2023/08/05 11:04:28;;;;;;;3.15;1.65;;;;;;;;;;5074742;28;20028;-67
2023/08/05 11:06:54;;;;;;;2.03;1.88;;;;;;;;;;5080216;28;20040;-68
2023/08/05 11:09:19;;;;;;;5.93;2.08;;;;;;;;;;5082167;28;20178;-68
2023/08/05 11:11:47;;;;;;;5.40;1.73;;;;;;;;;;5073650;28;20121;-69
2023/08/05 11:14:13;;;;;;;3.65;1.90;;;;;;;;;;5088857;28;20445;-69
2023/08/05 11:16:43;;;;;;;4.07;2.30;;;;;;;;;;5081685;28;20032;-69
2023/08/05 11:19:09;;;;;;;5.47;2.55;;;;;;;;;;5079196;28;20032;-68
2023/08/05 11:21:35;;;;;;;2.55;2.22;;;;;;;;;;5088970;28;20121;-68
2023/08/05 11:24:00;;;;;;;2.03;1.83;;;;;;;;;;5073465;28;20048;-68
2023/08/05 11:26:25;;;;;;;3.03;1.77;;;;;;;;;;5084277;28;20048;-69
2023/08/05 11:28:51;;;;;;;4.10;1.27;;;;;;;;;;5078018;28;20012;-68
2023/08/05 11:31:25;;;;;;;5.60;2.50;;;;;;;;;;5088370;28;20499;-68
2023/08/05 11:33:51;;;;;;;7.18;2.80;;;;;;;;;;5089995;28;20445;-68
2023/08/05 11:36:16;;;;;;;3.10;2.22;;;;;;;;;;5072187;28;20036;-68
2023/08/05 11:38:42;;;;;;;2.22;1.85;;;;;;;;;;5082656;28;20017;-68
2023/08/05 11:41:07;;;;;;;4.68;2.00;;;;;;;;;;5079274;28;20128;-68
2023/08/05 11:43:34;;;;;;;4.00;3.45;;;;;;;;;;5076306;28;20029;-68
2023/08/05 11:46:01;;;;;;;3.85;1.80;;;;;;;;;;5086423;28;20069;-69
2023/08/05 11:48:27;;;;;;;2.00;1.80;;;;;;;;;;5090138;28;20943;-68
2023/08/05 11:51:00;;;;;;;7.65;1.70;;;;;;;;;;5080068;28;20016;-68
2023/08/05 11:53:26;;;;;;;5.28;2.08;;;;;;;;;;5082145;28;20008;-68
2023/08/05 11:55:51;;;;;;;3.45;1.83;;;;;;;;;;5088795;28;20429;-68
2023/08/05 11:58:16;;;;;;;3.07;1.70;;;;;;;;;;5077293;28;20012;-68
2023/08/05 12:00:49;;;;;;;1.85;1.70;;;;;;;;;;5086776;28;20370;-69
2023/08/05 12:03:14;;;;;;;3.92;1.73;;;;;;;;;;5071899;28;20040;-68
2023/08/05 12:05:43;;;;;;;1.70;1.60;;;;;;;;;;5059325;28;20020;-68
2023/08/05 12:08:09;;;;;;;2.80;1.88;;;;;;;;;;5088481;28;20032;-68
2023/08/05 12:10:35;;;;;;;4.45;1.42;;;;;;;;;;5080036;28;20016;-67
2023/08/05 12:13:01;;;;;;;1.67;1.57;;;;;;;;;;5063976;28;20594;-67
2023/08/05 12:15:27;;;;;;;2.33;1.73;;;;;;;;;;5057590;28;20398;-68
2023/08/05 12:17:59;;;;;;;1.67;1.58;;;;;;;;;;5068704;28;20131;-68
2023/08/05 12:20:25;;;;;;;3.40;2.63;;;;;;;;;;5058265;28;20036;-67
2023/08/05 12:22:51;;;;;;;3.53;1.80;;;;;;;;;;5063702;28;20062;-68
2023/08/05 12:25:16;;;;;;;2.40;2.10;;;;;;;;;;5064794;28;20493;-68
2023/08/05 12:27:42;;;;;;;2.80;1.43;;;;;;;;;;5056680;28;20059;-69
2023/08/05 12:30:07;;;;;;;1.92;1.52;;;;;;;;;;5069418;28;20442;-70
2023/08/05 12:32:35;;;;;;;2.85;1.83;;;;;;;;;;5057872;28;20075;-68
2023/08/05 12:35:01;;;;;;;;;;;;;;;;;;5064473;28;20032;-68
2023/08/05 12:37:26;;;;;;;1.50;1.40;;;;;;;;;;5064306;28;19931;-68
2023/08/05 12:39:51;;;;;;;4.07;1.83;;;;;;;;;;5056703;28;20060;-68
2023/08/05 12:42:17;;;;;;;2.33;1.87;;;;;;;;;;5069785;28;20031;-69
2023/08/05 12:44:42;;;;;;;6.22;1.83;;;;;;;;;;5065792;28;20021;-68
2023/08/05 12:47:07;;;;;;;2.00;1.80;;;;;;;;;;5062584;28;20074;-68
2023/08/05 12:49:32;;;;;;;2.87;2.30;;;;;;;;;;5067361;28;20028;-69
2023/08/05 12:51:57;;;;;;;1.85;1.67;;;;;;;;;;5070393;28;20044;-69
2023/08/05 12:54:23;;;;;;;3.70;3.13;;;;;;;;;;5057423;28;20112;-69
2023/08/05 12:56:48;;;;;;;3.07;2.30;;;;;;;;;;5063477;28;20492;-69
2023/08/05 12:59:13;;;;;;;2.47;2.13;;;;;;;;;;5071644;28;20024;-69
2023/08/05 13:01:38;;;;;;;4.07;2.30;;;;;;;;;;5056848;28;20057;-69
2023/08/05 13:04:03;;;;;;;2.67;2.30;;;;;;;;;;5068071;28;20017;-69
2023/08/05 13:06:28;;;;;;;9.10;4.38;;;;;;;;;;5056003;28;20456;-69
2023/08/05 13:08:54;;;;;;;2.37;2.17;;;;;;;;;;5060717;28;20021;-68
2023/08/05 13:11:19;;;;;;;3.83;3.43;;;;;;;;;;5059977;28;20459;-69
2023/08/05 13:13:44;;;;;;;3.85;2.67;;;;;;;;;;5067299;28;20094;-69
2023/08/05 13:16:09;;;;;;;4.40;2.83;;;;;;;;;;5054181;28;20037;-68
2023/08/05 13:18:34;;;;;;;3.97;2.53;;;;;;;;;;5066365;28;20455;-68
2023/08/05 13:21:00;;;;;;;5.77;2.50;;;;;;;;;;5055463;28;20039;-68
2023/08/05 13:23:25;;;;;;;2.85;2.58;;;;;;;;;;5084929;28;20438;-68
2023/08/05 13:25:50;;;;;;;5.53;2.60;;;;;;;;;;5089815;28;20024;-68
2023/08/05 13:28:15;;;;;;;6.43;3.70;;;;;;;;;;5072079;28;20450;-68
2023/08/05 13:30:40;;;;;;;1.20;1.10;;;;;;;;;;5072577;28;20020;-70
2023/08/05 13:33:06;;;;;;;1.45;1.23;;;;;;;;;;5068841;28;20466;-70
2023/08/05 13:35:31;;;;;;;13.50;3.47;;;;;;;;;;5068006;28;20110;-67
2023/08/05 13:37:56;;;;;;;1.63;1.53;;;;;;;;;;5070328;28;20071;-70
2023/08/05 13:40:21;;;;;;;3.20;2.17;;;;;;;;;;5070522;28;20454;-68
2023/08/05 13:42:46;;;;;;;7.30;3.37;;;;;;;;;;5069369;28;20484;-70
2023/08/05 13:45:11;;;;;;;7.80;2.70;;;;;;;;;;5072081;28;20399;-72
2023/08/05 13:47:37;;;;;;;6.20;2.90;;;;;;;;;;5069260;28;20029;-72
2023/08/05 13:50:02;;;;;;;5.63;2.43;;;;;;;;;;5071707;28;20162;-72
2023/08/05 13:52:27;;;;;;;5.03;3.45;;;;;;;;;;5070492;28;20490;-72
2023/08/05 13:54:53;;;;;;;4.60;3.45;;;;;;;;;;5071824;28;20024;-72
2023/08/05 13:57:18;;;;;;;6.40;3.73;;;;;;;;;;5070180;28;20083;-71
2023/08/05 13:59:43;;;;;;;6.60;4.68;;;;;;;;;;5071884;28;20071;-72
2023/08/05 14:02:08;;;;;;;6.70;4.03;;;;;;;;;;5070327;28;20066;-72
2023/08/05 14:04:33;;;;;;;5.83;4.73;;;;;;;;;;5071970;28;20464;-72
2023/08/05 14:06:58;;;;;;;6.57;3.90;;;;;;;;;;5070360;28;20044;-72
2023/08/05 14:09:23;;;;;;;6.28;4.28;;;;;;;;;;5071550;28;20469;-72
2023/08/05 14:11:49;;;;;;;7.75;5.03;;;;;;;;;;5070324;28;20037;-72
2023/08/05 14:14:14;;;;;;;5.93;5.33;;;;;;;;;;5070688;28;20502;-72
2023/08/05 14:16:39;;;;;;;5.20;4.73;;;;;;;;;;5070201;28;20032;-72
2023/08/05 14:19:06;;;;;;;5.80;5.27;;;;;;;;;;5071523;28;20541;-73
2023/08/05 14:21:31;;;;;;;6.93;5.03;;;;;;;;;;5068553;28;21007;-72
2023/08/05 14:23:56;;;;;;;8.60;6.53;;;;;;;;;;5071327;28;20029;-72
2023/08/05 14:26:22;;;;;;;5.88;5.35;;;;;;;;;;5068502;28;20032;-72
2023/08/05 14:28:47;;;;;;;9.77;7.90;;;;;;;;;;5070192;28;20073;-71
2023/08/05 14:31:12;;;;;;;8.53;7.33;;;;;;;;;;5069450;28;20605;-72